KCHK/CHK METAR and TAF weather

Enter ICAO airport designator
Station Type Date Time Source
KCHK METAR 2019/04/26 03:55 UTC NOAA

KCHK 260355Z AUTO 34006KT 13/11 A3007 RMK AO2 T01290115


Station Type Date Time Source
KCHK Decoded METAR 2019/04/26 03:55 UTC NOAA

Chickasha, Chickasha Municipal Airport, OK, United States (KCHK) 35-05-46N 097-57-58W
Apr 25, 2019 - 11:55 PM EDT / 2019.04.26 0355 UTC
Wind: from the NNW (340 degrees) at 7 MPH (6 KT):0
Temperature: 55.2 F (12.9 C)
Dew Point: 52.7 F (11.5 C)
Relative Humidity: 91%
Pressure (altimeter): 30.07 in. Hg (1018 hPa)
ob: KCHK 260355Z AUTO 34006KT 13/11 A3007 RMK AO2 T01290115
cycle: 4

Station Type Date Time Source
KCHK TAF UTC NOAA

Error!

Example: see airport list